sensor_id;sensor_type;location;lat;lon;timestamp;temperature;humidity
52963;DHT22;38827;53.024;6.596;2022-11-23T00:06:05;8.00;86.00
52963;DHT22;38827;53.024;6.596;2022-11-23T00:09:09;8.00;86.10
52963;DHT22;38827;53.024;6.596;2022-11-23T00:21:39;8.00;86.60
52963;DHT22;38827;53.024;6.596;2022-11-23T00:24:57;8.10;86.40
52963;DHT22;38827;53.024;6.596;2022-11-23T00:27:46;8.10;86.20
52963;DHT22;38827;53.024;6.596;2022-11-23T00:30:49;8.10;86.10
52963;DHT22;38827;53.024;6.596;2022-11-23T00:33:31;8.10;86.10
52963;DHT22;38827;53.024;6.596;2022-11-23T00:36:07;8.10;86.20
52963;DHT22;38827;53.024;6.596;2022-11-23T00:39:01;8.20;86.20
52963;DHT22;38827;53.024;6.596;2022-11-23T00:41:39;8.20;86.10
52963;DHT22;38827;53.024;6.596;2022-11-23T00:44:04;8.20;86.30
52963;DHT22;38827;53.024;6.596;2022-11-23T00:46:49;8.20;86.20
52963;DHT22;38827;53.024;6.596;2022-11-23T00:49:36;8.20;86.10
52963;DHT22;38827;53.024;6.596;2022-11-23T00:56:01;8.20;86.10
52963;DHT22;38827;53.024;6.596;2022-11-23T00:58:58;8.20;86.40
52963;DHT22;38827;53.024;6.596;2022-11-23T01:05:01;8.30;86.10
52963;DHT22;38827;53.024;6.596;2022-11-23T01:11:08;8.30;86.20
52963;DHT22;38827;53.024;6.596;2022-11-23T01:13:36;8.30;86.20
52963;DHT22;38827;53.024;6.596;2022-11-23T01:16:37;8.30;86.20
52963;DHT22;38827;53.024;6.596;2022-11-23T01:19:19;8.30;86.00
52963;DHT22;38827;53.024;6.596;2022-11-23T01:21:47;8.30;86.20
52963;DHT22;38827;53.024;6.596;2022-11-23T01:24:22;8.30;86.40
52963;DHT22;38827;53.024;6.596;2022-11-23T01:27:21;8.30;86.30
52963;DHT22;38827;53.024;6.596;2022-11-23T01:29:47;8.30;86.20
52963;DHT22;38827;53.024;6.596;2022-11-23T01:32:13;8.30;86.30
52963;DHT22;38827;53.024;6.596;2022-11-23T01:34:39;8.30;86.30
52963;DHT22;38827;53.024;6.596;2022-11-23T01:37:04;8.40;86.40
52963;DHT22;38827;53.024;6.596;2022-11-23T01:39:30;8.30;86.30
52963;DHT22;38827;53.024;6.596;2022-11-23T01:41:56;8.40;86.50
52963;DHT22;38827;53.024;6.596;2022-11-23T01:44:26;8.30;86.30
52963;DHT22;38827;53.024;6.596;2022-11-23T01:46:53;8.30;86.40
52963;DHT22;38827;53.024;6.596;2022-11-23T01:49:18;8.40;86.50
52963;DHT22;38827;53.024;6.596;2022-11-23T01:51:47;8.30;86.50
52963;DHT22;38827;53.024;6.596;2022-11-23T01:54:18;8.30;86.50
52963;DHT22;38827;53.024;6.596;2022-11-23T01:56:53;8.40;86.60
52963;DHT22;38827;53.024;6.596;2022-11-23T01:59:20;8.40;86.60
52963;DHT22;38827;53.024;6.596;2022-11-23T02:01:47;8.40;86.50
52963;DHT22;38827;53.024;6.596;2022-11-23T02:04:18;8.40;86.40
52963;DHT22;38827;53.024;6.596;2022-11-23T02:06:47;8.40;86.60
52963;DHT22;38827;53.024;6.596;2022-11-23T02:09:14;8.40;86.70
52963;DHT22;38827;53.024;6.596;2022-11-23T02:11:40;8.40;86.70
52963;DHT22;38827;53.024;6.596;2022-11-23T02:14:06;8.40;86.50
52963;DHT22;38827;53.024;6.596;2022-11-23T02:16:32;8.40;86.50
52963;DHT22;38827;53.024;6.596;2022-11-23T02:18:58;8.40;86.60
52963;DHT22;38827;53.024;6.596;2022-11-23T02:21:24;8.40;86.60
52963;DHT22;38827;53.024;6.596;2022-11-23T02:24:14;8.40;86.60
52963;DHT22;38827;53.024;6.596;2022-11-23T02:26:43;8.40;86.60
52963;DHT22;38827;53.024;6.596;2022-11-23T02:29:12;8.40;86.80
52963;DHT22;38827;53.024;6.596;2022-11-23T02:42:02;8.40;86.80
52963;DHT22;38827;53.024;6.596;2022-11-23T02:51:29;8.40;87.00
52963;DHT22;38827;53.024;6.596;2022-11-23T02:54:00;8.40;87.20
52963;DHT22;38827;53.024;6.596;2022-11-23T02:56:26;8.40;87.10
52963;DHT22;38827;53.024;6.596;2022-11-23T02:59:10;8.40;87.20
52963;DHT22;38827;53.024;6.596;2022-11-23T03:01:36;8.40;87.10
52963;DHT22;38827;53.024;6.596;2022-11-23T03:04:04;8.40;87.30
52963;DHT22;38827;53.024;6.596;2022-11-23T03:06:30;8.40;87.30
52963;DHT22;38827;53.024;6.596;2022-11-23T03:08:55;8.40;87.30
52963;DHT22;38827;53.024;6.596;2022-11-23T03:11:22;8.40;87.30
52963;DHT22;38827;53.024;6.596;2022-11-23T03:13:51;8.40;87.30
52963;DHT22;38827;53.024;6.596;2022-11-23T03:16:16;8.40;87.40
52963;DHT22;38827;53.024;6.596;2022-11-23T03:18:42;8.40;87.50
52963;DHT22;38827;53.024;6.596;2022-11-23T03:21:08;8.40;87.50
52963;DHT22;38827;53.024;6.596;2022-11-23T03:23:34;8.40;87.60
52963;DHT22;38827;53.024;6.596;2022-11-23T03:26:00;8.40;87.50
52963;DHT22;38827;53.024;6.596;2022-11-23T03:28:26;8.40;87.50
52963;DHT22;38827;53.024;6.596;2022-11-23T03:30:52;8.40;87.50
52963;DHT22;38827;53.024;6.596;2022-11-23T03:33:18;8.40;87.60
52963;DHT22;38827;53.024;6.596;2022-11-23T03:35:44;8.40;87.60
52963;DHT22;38827;53.024;6.596;2022-11-23T03:38:11;8.40;87.60
52963;DHT22;38827;53.024;6.596;2022-11-23T03:40:37;8.50;87.70
52963;DHT22;38827;53.024;6.596;2022-11-23T03:43:03;8.50;87.80
52963;DHT22;38827;53.024;6.596;2022-11-23T03:45:29;8.50;87.70
52963;DHT22;38827;53.024;6.596;2022-11-23T03:47:55;8.50;87.70
52963;DHT22;38827;53.024;6.596;2022-11-23T03:50:20;8.50;87.60
52963;DHT22;38827;53.024;6.596;2022-11-23T03:52:49;8.50;87.60
52963;DHT22;38827;53.024;6.596;2022-11-23T03:55:15;8.60;87.60
52963;DHT22;38827;53.024;6.596;2022-11-23T03:57:41;8.60;87.60
52963;DHT22;38827;53.024;6.596;2022-11-23T04:00:08;8.50;87.70
52963;DHT22;38827;53.024;6.596;2022-11-23T04:02:34;8.60;87.60
52963;DHT22;38827;53.024;6.596;2022-11-23T04:05:00;8.60;87.60
52963;DHT22;38827;53.024;6.596;2022-11-23T04:07:26;8.60;87.70
52963;DHT22;38827;53.024;6.596;2022-11-23T04:09:51;8.60;87.70
52963;DHT22;38827;53.024;6.596;2022-11-23T04:12:17;8.60;87.70
52963;DHT22;38827;53.024;6.596;2022-11-23T04:14:43;8.60;87.70
52963;DHT22;38827;53.024;6.596;2022-11-23T04:17:08;8.60;87.60
52963;DHT22;38827;53.024;6.596;2022-11-23T04:19:34;8.60;87.60
52963;DHT22;38827;53.024;6.596;2022-11-23T04:22:00;8.60;87.60
52963;DHT22;38827;53.024;6.596;2022-11-23T04:24:26;8.60;87.50
52963;DHT22;38827;53.024;6.596;2022-11-23T04:26:51;8.60;87.60
52963;DHT22;38827;53.024;6.596;2022-11-23T04:29:17;8.60;87.60
52963;DHT22;38827;53.024;6.596;2022-11-23T04:31:42;8.50;87.60
52963;DHT22;38827;53.024;6.596;2022-11-23T04:34:08;8.50;87.60
52963;DHT22;38827;53.024;6.596;2022-11-23T04:36:34;8.50;87.60
52963;DHT22;38827;53.024;6.596;2022-11-23T04:39:00;8.50;87.60
52963;DHT22;38827;53.024;6.596;2022-11-23T04:41:27;8.50;87.70
52963;DHT22;38827;53.024;6.596;2022-11-23T04:43:52;8.50;87.80
52963;DHT22;38827;53.024;6.596;2022-11-23T04:46:18;8.50;87.70
52963;DHT22;38827;53.024;6.596;2022-11-23T04:48:46;8.50;87.80
52963;DHT22;38827;53.024;6.596;2022-11-23T04:51:12;8.50;87.80
52963;DHT22;38827;53.024;6.596;2022-11-23T04:53:38;8.50;87.90
52963;DHT22;38827;53.024;6.596;2022-11-23T04:56:03;8.50;87.90
52963;DHT22;38827;53.024;6.596;2022-11-23T04:58:29;8.50;87.90
52963;DHT22;38827;53.024;6.596;2022-11-23T05:00:56;8.50;87.90
52963;DHT22;38827;53.024;6.596;2022-11-23T05:03:22;8.50;88.00
52963;DHT22;38827;53.024;6.596;2022-11-23T05:05:47;8.50;87.90
52963;DHT22;38827;53.024;6.596;2022-11-23T05:08:13;8.50;87.90
52963;DHT22;38827;53.024;6.596;2022-11-23T05:10:39;8.50;87.80
52963;DHT22;38827;53.024;6.596;2022-11-23T05:13:04;8.50;87.80
52963;DHT22;38827;53.024;6.596;2022-11-23T05:15:30;8.50;87.80
52963;DHT22;38827;53.024;6.596;2022-11-23T05:18:06;8.50;87.80
52963;DHT22;38827;53.024;6.596;2022-11-23T05:20:32;8.60;87.70
52963;DHT22;38827;53.024;6.596;2022-11-23T05:22:58;8.60;87.80
52963;DHT22;38827;53.024;6.596;2022-11-23T05:25:24;8.60;87.70
52963;DHT22;38827;53.024;6.596;2022-11-23T05:27:50;8.60;87.70
52963;DHT22;38827;53.024;6.596;2022-11-23T05:30:16;8.60;87.70
52963;DHT22;38827;53.024;6.596;2022-11-23T05:32:42;8.60;87.70
52963;DHT22;38827;53.024;6.596;2022-11-23T05:35:08;8.60;87.70
52963;DHT22;38827;53.024;6.596;2022-11-23T05:37:35;8.60;87.70
52963;DHT22;38827;53.024;6.596;2022-11-23T05:40:01;8.60;87.60
52963;DHT22;38827;53.024;6.596;2022-11-23T05:42:27;8.60;87.70
52963;DHT22;38827;53.024;6.596;2022-11-23T05:44:52;8.60;87.60
52963;DHT22;38827;53.024;6.596;2022-11-23T05:47:18;8.60;87.60
52963;DHT22;38827;53.024;6.596;2022-11-23T05:49:43;8.50;87.60
52963;DHT22;38827;53.024;6.596;2022-11-23T05:52:09;8.50;87.70
52963;DHT22;38827;53.024;6.596;2022-11-23T05:54:35;8.50;87.50
52963;DHT22;38827;53.024;6.596;2022-11-23T05:57:00;8.50;87.50
52963;DHT22;38827;53.024;6.596;2022-11-23T05:59:26;8.50;87.50
52963;DHT22;38827;53.024;6.596;2022-11-23T06:01:52;8.50;87.50
52963;DHT22;38827;53.024;6.596;2022-11-23T06:04:17;8.50;87.50
52963;DHT22;38827;53.024;6.596;2022-11-23T06:06:43;8.50;87.30
52963;DHT22;38827;53.024;6.596;2022-11-23T06:09:08;8.50;87.20
52963;DHT22;38827;53.024;6.596;2022-11-23T06:11:34;8.50;87.30
52963;DHT22;38827;53.024;6.596;2022-11-23T06:14:02;8.40;87.30
52963;DHT22;38827;53.024;6.596;2022-11-23T06:16:28;8.40;87.30
52963;DHT22;38827;53.024;6.596;2022-11-23T06:18:53;8.40;87.20
52963;DHT22;38827;53.024;6.596;2022-11-23T06:21:19;8.40;87.30
52963;DHT22;38827;53.024;6.596;2022-11-23T06:23:48;8.40;87.30
52963;DHT22;38827;53.024;6.596;2022-11-23T06:26:14;8.40;87.40
52963;DHT22;38827;53.024;6.596;2022-11-23T06:28:41;8.30;87.30
52963;DHT22;38827;53.024;6.596;2022-11-23T06:31:07;8.30;87.30
52963;DHT22;38827;53.024;6.596;2022-11-23T06:33:33;8.30;87.30
52963;DHT22;38827;53.024;6.596;2022-11-23T06:36:00;8.40;87.30
52963;DHT22;38827;53.024;6.596;2022-11-23T06:38:26;8.30;87.30
52963;DHT22;38827;53.024;6.596;2022-11-23T06:40:52;8.30;87.20
52963;DHT22;38827;53.024;6.596;2022-11-23T06:43:18;8.30;87.20
52963;DHT22;38827;53.024;6.596;2022-11-23T06:45:44;8.30;87.20
52963;DHT22;38827;53.024;6.596;2022-11-23T06:48:09;8.20;87.20
52963;DHT22;38827;53.024;6.596;2022-11-23T06:50:46;8.20;87.20
52963;DHT22;38827;53.024;6.596;2022-11-23T06:53:12;8.20;87.40
52963;DHT22;38827;53.024;6.596;2022-11-23T06:55:38;8.20;87.30
52963;DHT22;38827;53.024;6.596;2022-11-23T06:58:04;8.20;87.30
52963;DHT22;38827;53.024;6.596;2022-11-23T07:00:31;8.20;87.40
52963;DHT22;38827;53.024;6.596;2022-11-23T07:02:57;8.20;87.40
52963;DHT22;38827;53.024;6.596;2022-11-23T07:05:23;8.20;87.30
52963;DHT22;38827;53.024;6.596;2022-11-23T07:07:52;8.20;87.30
52963;DHT22;38827;53.024;6.596;2022-11-23T07:10:18;8.20;87.40
52963;DHT22;38827;53.024;6.596;2022-11-23T07:12:45;8.20;87.30
52963;DHT22;38827;53.024;6.596;2022-11-23T07:15:20;8.20;87.20
52963;DHT22;38827;53.024;6.596;2022-11-23T07:17:46;8.20;87.40
52963;DHT22;38827;53.024;6.596;2022-11-23T07:20:15;8.20;87.30
52963;DHT22;38827;53.024;6.596;2022-11-23T07:22:42;8.20;87.30
52963;DHT22;38827;53.024;6.596;2022-11-23T07:25:08;8.20;87.20
52963;DHT22;38827;53.024;6.596;2022-11-23T07:27:34;8.20;87.20
52963;DHT22;38827;53.024;6.596;2022-11-23T07:29:59;8.20;87.20
52963;DHT22;38827;53.024;6.596;2022-11-23T07:32:25;8.20;87.10
52963;DHT22;38827;53.024;6.596;2022-11-23T07:34:50;8.20;87.20
52963;DHT22;38827;53.024;6.596;2022-11-23T07:37:16;8.30;87.00
52963;DHT22;38827;53.024;6.596;2022-11-23T07:39:42;8.30;87.00
52963;DHT22;38827;53.024;6.596;2022-11-23T07:42:08;8.30;87.00
52963;DHT22;38827;53.024;6.596;2022-11-23T07:44:34;8.30;87.00
52963;DHT22;38827;53.024;6.596;2022-11-23T07:46:59;8.30;87.00
52963;DHT22;38827;53.024;6.596;2022-11-23T07:49:25;8.20;86.90
52963;DHT22;38827;53.024;6.596;2022-11-23T07:51:51;8.20;86.90
52963;DHT22;38827;53.024;6.596;2022-11-23T07:54:18;8.30;86.90
52963;DHT22;38827;53.024;6.596;2022-11-23T07:56:46;8.30;86.80
52963;DHT22;38827;53.024;6.596;2022-11-23T07:59:12;8.30;86.70
52963;DHT22;38827;53.024;6.596;2022-11-23T08:01:38;8.30;86.70
52963;DHT22;38827;53.024;6.596;2022-11-23T08:04:04;8.30;86.70
52963;DHT22;38827;53.024;6.596;2022-11-23T08:06:29;8.30;86.70
52963;DHT22;38827;53.024;6.596;2022-11-23T08:08:56;8.30;86.60
52963;DHT22;38827;53.024;6.596;2022-11-23T08:11:21;8.30;86.50
52963;DHT22;38827;53.024;6.596;2022-11-23T08:13:47;8.30;86.60
52963;DHT22;38827;53.024;6.596;2022-11-23T08:16:13;8.30;86.60
52963;DHT22;38827;53.024;6.596;2022-11-23T08:18:38;8.30;86.60
52963;DHT22;38827;53.024;6.596;2022-11-23T08:21:05;8.40;86.50
52963;DHT22;38827;53.024;6.596;2022-11-23T08:23:31;8.40;86.50
52963;DHT22;38827;53.024;6.596;2022-11-23T08:25:57;8.50;86.40
52963;DHT22;38827;53.024;6.596;2022-11-23T08:28:23;8.50;86.30
52963;DHT22;38827;53.024;6.596;2022-11-23T08:30:49;8.50;86.20
52963;DHT22;38827;53.024;6.596;2022-11-23T08:33:14;8.60;86.10
52963;DHT22;38827;53.024;6.596;2022-11-23T08:35:41;8.60;86.00
52963;DHT22;38827;53.024;6.596;2022-11-23T08:38:08;8.60;85.90
52963;DHT22;38827;53.024;6.596;2022-11-23T08:40:34;8.60;85.80
52963;DHT22;38827;53.024;6.596;2022-11-23T08:43:00;8.50;85.60
52963;DHT22;38827;53.024;6.596;2022-11-23T08:45:25;8.50;85.80
52963;DHT22;38827;53.024;6.596;2022-11-23T08:47:51;8.60;86.00
52963;DHT22;38827;53.024;6.596;2022-11-23T08:50:18;8.60;85.80
52963;DHT22;38827;53.024;6.596;2022-11-23T08:52:44;8.60;85.70
52963;DHT22;38827;53.024;6.596;2022-11-23T08:55:09;8.60;85.70
52963;DHT22;38827;53.024;6.596;2022-11-23T08:57:35;8.70;85.60
52963;DHT22;38827;53.024;6.596;2022-11-23T09:00:01;8.70;85.60
52963;DHT22;38827;53.024;6.596;2022-11-23T09:02:27;8.80;85.60
52963;DHT22;38827;53.024;6.596;2022-11-23T09:04:53;8.80;85.50
52963;DHT22;38827;53.024;6.596;2022-11-23T09:07:18;8.90;85.50
52963;DHT22;38827;53.024;6.596;2022-11-23T09:09:44;9.00;85.20
52963;DHT22;38827;53.024;6.596;2022-11-23T09:12:10;9.10;84.80
52963;DHT22;38827;53.024;6.596;2022-11-23T09:14:35;9.10;84.70
52963;DHT22;38827;53.024;6.596;2022-11-23T09:17:01;9.20;84.70
52963;DHT22;38827;53.024;6.596;2022-11-23T09:19:27;9.30;84.20
52963;DHT22;38827;53.024;6.596;2022-11-23T09:21:53;9.30;84.00
52963;DHT22;38827;53.024;6.596;2022-11-23T09:24:19;9.30;83.40
52963;DHT22;38827;53.024;6.596;2022-11-23T09:26:44;9.30;83.40
52963;DHT22;38827;53.024;6.596;2022-11-23T09:29:10;9.30;83.40
52963;DHT22;38827;53.024;6.596;2022-11-23T09:31:36;9.30;83.40
52963;DHT22;38827;53.024;6.596;2022-11-23T09:34:02;9.30;83.10
52963;DHT22;38827;53.024;6.596;2022-11-23T09:36:27;9.30;82.80
52963;DHT22;38827;53.024;6.596;2022-11-23T09:38:56;9.30;82.70
52963;DHT22;38827;53.024;6.596;2022-11-23T09:44:23;9.30;82.50
52963;DHT22;38827;53.024;6.596;2022-11-23T09:49:35;9.20;82.60
52963;DHT22;38827;53.024;6.596;2022-11-23T09:52:12;9.30;82.40
52963;DHT22;38827;53.024;6.596;2022-11-23T09:54:39;9.30;82.50
52963;DHT22;38827;53.024;6.596;2022-11-23T09:57:06;9.30;82.30
52963;DHT22;38827;53.024;6.596;2022-11-23T09:59:51;9.30;82.30
52963;DHT22;38827;53.024;6.596;2022-11-23T10:02:23;9.40;82.00
52963;DHT22;38827;53.024;6.596;2022-11-23T10:04:51;9.90;80.70
52963;DHT22;38827;53.024;6.596;2022-11-23T10:12:33;9.40;81.60
52963;DHT22;38827;53.024;6.596;2022-11-23T10:21:02;9.40;81.00
52963;DHT22;38827;53.024;6.596;2022-11-23T10:26:03;9.40;81.20
52963;DHT22;38827;53.024;6.596;2022-11-23T10:28:30;9.40;81.20
52963;DHT22;38827;53.024;6.596;2022-11-23T10:31:17;9.40;81.00
52963;DHT22;38827;53.024;6.596;2022-11-23T10:34:01;9.40;80.70
52963;DHT22;38827;53.024;6.596;2022-11-23T10:36:28;9.40;80.90
52963;DHT22;38827;53.024;6.596;2022-11-23T10:38:58;9.30;81.10
52963;DHT22;38827;53.024;6.596;2022-11-23T10:41:25;9.40;81.10
52963;DHT22;38827;53.024;6.596;2022-11-23T10:46:51;9.40;81.00
52963;DHT22;38827;53.024;6.596;2022-11-23T10:49:29;9.40;80.80
52963;DHT22;38827;53.024;6.596;2022-11-23T10:54:55;9.40;81.10
52963;DHT22;38827;53.024;6.596;2022-11-23T10:57:33;9.40;81.10
52963;DHT22;38827;53.024;6.596;2022-11-23T11:02:41;9.40;81.50
52963;DHT22;38827;53.024;6.596;2022-11-23T11:05:38;9.50;81.70
52963;DHT22;38827;53.024;6.596;2022-11-23T11:08:18;9.60;81.70
52963;DHT22;38827;53.024;6.596;2022-11-23T11:10:45;9.60;81.80
52963;DHT22;38827;53.024;6.596;2022-11-23T11:16:29;10.10;80.40
52963;DHT22;38827;53.024;6.596;2022-11-23T11:18:55;9.80;81.20
52963;DHT22;38827;53.024;6.596;2022-11-23T11:21:34;9.80;81.30
52963;DHT22;38827;53.024;6.596;2022-11-23T11:24:20;10.00;80.80
52963;DHT22;38827;53.024;6.596;2022-11-23T11:26:48;10.10;80.50
52963;DHT22;38827;53.024;6.596;2022-11-23T11:29:37;10.20;80.10
52963;DHT22;38827;53.024;6.596;2022-11-23T11:32:25;10.40;79.80
52963;DHT22;38827;53.024;6.596;2022-11-23T11:40:09;10.80;78.20
52963;DHT22;38827;53.024;6.596;2022-11-23T11:42:42;10.70;77.80
52963;DHT22;38827;53.024;6.596;2022-11-23T11:48:07;10.60;77.30
52963;DHT22;38827;53.024;6.596;2022-11-23T12:01:35;10.30;77.40
52963;DHT22;38827;53.024;6.596;2022-11-23T12:07:40;10.30;76.70
52963;DHT22;38827;53.024;6.596;2022-11-23T12:10:59;10.30;76.10
52963;DHT22;38827;53.024;6.596;2022-11-23T12:17:35;10.40;75.80
52963;DHT22;38827;53.024;6.596;2022-11-23T12:31:31;10.40;72.30
52963;DHT22;38827;53.024;6.596;2022-11-23T12:37:06;10.40;72.60
52963;DHT22;38827;53.024;6.596;2022-11-23T12:39:59;10.50;71.60
52963;DHT22;38827;53.024;6.596;2022-11-23T12:42:48;10.50;71.50
52963;DHT22;38827;53.024;6.596;2022-11-23T12:53:02;10.70;70.90
52963;DHT22;38827;53.024;6.596;2022-11-23T12:56:00;10.80;71.10
52963;DHT22;38827;53.024;6.596;2022-11-23T12:58:29;10.90;69.70
52963;DHT22;38827;53.024;6.596;2022-11-23T13:01:02;11.00;69.90
52963;DHT22;38827;53.024;6.596;2022-11-23T13:03:55;11.00;69.30
52963;DHT22;38827;53.024;6.596;2022-11-23T13:21:44;10.90;67.40
52963;DHT22;38827;53.024;6.596;2022-11-23T13:24:33;10.80;68.20
52963;DHT22;38827;53.024;6.596;2022-11-23T13:40:30;10.40;67.70
52963;DHT22;38827;53.024;6.596;2022-11-23T13:43:00;10.40;67.80
52963;DHT22;38827;53.024;6.596;2022-11-23T13:45:32;10.30;68.10
52963;DHT22;38827;53.024;6.596;2022-11-23T13:50:57;10.30;67.60
52963;DHT22;38827;53.024;6.596;2022-11-23T13:53:33;10.20;67.40
52963;DHT22;38827;53.024;6.596;2022-11-23T13:56:23;10.20;67.80
52963;DHT22;38827;53.024;6.596;2022-11-23T13:58:56;10.20;67.40
52963;DHT22;38827;53.024;6.596;2022-11-23T14:01:56;10.10;68.20
52963;DHT22;38827;53.024;6.596;2022-11-23T14:04:24;10.10;67.40
52963;DHT22;38827;53.024;6.596;2022-11-23T14:06:56;10.10;68.20
52963;DHT22;38827;53.024;6.596;2022-11-23T14:09:29;10.00;68.20
52963;DHT22;38827;53.024;6.596;2022-11-23T14:14:55;10.00;68.00
52963;DHT22;38827;53.024;6.596;2022-11-23T14:23:56;9.90;68.30
52963;DHT22;38827;53.024;6.596;2022-11-23T14:42:27;9.60;68.60
52963;DHT22;38827;53.024;6.596;2022-11-23T14:44:55;9.60;68.90
52963;DHT22;38827;53.024;6.596;2022-11-23T14:47:26;9.50;68.90
52963;DHT22;38827;53.024;6.596;2022-11-23T14:49:53;9.50;68.70
52963;DHT22;38827;53.024;6.596;2022-11-23T14:52:27;9.40;68.60
52963;DHT22;38827;53.024;6.596;2022-11-23T14:54:55;9.40;68.70
52963;DHT22;38827;53.024;6.596;2022-11-23T14:57:25;9.40;68.80
52963;DHT22;38827;53.024;6.596;2022-11-23T14:59:56;9.30;68.70
52963;DHT22;38827;53.024;6.596;2022-11-23T15:02:38;9.30;68.50
52963;DHT22;38827;53.024;6.596;2022-11-23T15:05:20;9.30;68.80
52963;DHT22;38827;53.024;6.596;2022-11-23T15:08:05;9.30;68.50
52963;DHT22;38827;53.024;6.596;2022-11-23T15:10:44;9.20;68.50
52963;DHT22;38827;53.024;6.596;2022-11-23T15:13:22;9.10;69.00
52963;DHT22;38827;53.024;6.596;2022-11-23T15:15:53;9.10;68.80
52963;DHT22;38827;53.024;6.596;2022-11-23T15:18:33;9.00;69.10
52963;DHT22;38827;53.024;6.596;2022-11-23T15:21:06;9.00;69.10
52963;DHT22;38827;53.024;6.596;2022-11-23T15:23:47;9.00;69.40
52963;DHT22;38827;53.024;6.596;2022-11-23T15:26:22;8.90;69.30
52963;DHT22;38827;53.024;6.596;2022-11-23T15:28:49;8.90;69.40
52963;DHT22;38827;53.024;6.596;2022-11-23T15:33:52;9.00;69.40
52963;DHT22;38827;53.024;6.596;2022-11-23T15:36:29;9.00;69.30
52963;DHT22;38827;53.024;6.596;2022-11-23T15:38:56;9.00;69.00
52963;DHT22;38827;53.024;6.596;2022-11-23T15:41:23;9.00;69.20
52963;DHT22;38827;53.024;6.596;2022-11-23T15:43:54;9.10;69.20
52963;DHT22;38827;53.024;6.596;2022-11-23T15:46:22;9.10;69.00
52963;DHT22;38827;53.024;6.596;2022-11-23T15:48:50;9.10;68.90
52963;DHT22;38827;53.024;6.596;2022-11-23T15:53:52;9.20;68.60
52963;DHT22;38827;53.024;6.596;2022-11-23T15:56:26;9.20;68.60
52963;DHT22;38827;53.024;6.596;2022-11-23T15:58:53;9.20;68.50
52963;DHT22;38827;53.024;6.596;2022-11-23T16:01:19;9.20;68.90
52963;DHT22;38827;53.024;6.596;2022-11-23T16:03:54;9.20;69.10
52963;DHT22;38827;53.024;6.596;2022-11-23T16:08:56;9.10;70.30
52963;DHT22;38827;53.024;6.596;2022-11-23T16:11:28;9.10;70.60
52963;DHT22;38827;53.024;6.596;2022-11-23T16:14:17;9.10;70.90
52963;DHT22;38827;53.024;6.596;2022-11-23T16:16:57;9.00;71.20
52963;DHT22;38827;53.024;6.596;2022-11-23T16:19:32;8.90;71.50
52963;DHT22;38827;53.024;6.596;2022-11-23T16:22:03;8.90;71.90
52963;DHT22;38827;53.024;6.596;2022-11-23T16:24:32;8.80;72.20
52963;DHT22;38827;53.024;6.596;2022-11-23T16:26:58;8.80;72.60
52963;DHT22;38827;53.024;6.596;2022-11-23T16:29:26;8.80;72.70
52963;DHT22;38827;53.024;6.596;2022-11-23T16:31:59;8.80;72.90
52963;DHT22;38827;53.024;6.596;2022-11-23T16:34:25;8.70;72.90
52963;DHT22;38827;53.024;6.596;2022-11-23T16:36:54;8.70;73.10
52963;DHT22;38827;53.024;6.596;2022-11-23T16:39:22;8.70;73.20
52963;DHT22;38827;53.024;6.596;2022-11-23T16:41:49;8.70;73.30
52963;DHT22;38827;53.024;6.596;2022-11-23T16:44:15;8.70;73.40
52963;DHT22;38827;53.024;6.596;2022-11-23T16:50:02;8.70;73.50
52963;DHT22;38827;53.024;6.596;2022-11-23T16:52:30;8.60;73.80
52963;DHT22;38827;53.024;6.596;2022-11-23T16:54:56;8.60;73.80
52963;DHT22;38827;53.024;6.596;2022-11-23T16:57:26;8.60;73.80
52963;DHT22;38827;53.024;6.596;2022-11-23T16:59:53;8.60;73.90
52963;DHT22;38827;53.024;6.596;2022-11-23T17:02:19;8.60;74.00
52963;DHT22;38827;53.024;6.596;2022-11-23T17:04:45;8.60;74.00
52963;DHT22;38827;53.024;6.596;2022-11-23T17:07:11;8.60;74.10
52963;DHT22;38827;53.024;6.596;2022-11-23T17:09:36;8.60;74.30
52963;DHT22;38827;53.024;6.596;2022-11-23T17:12:04;8.60;74.50
52963;DHT22;38827;53.024;6.596;2022-11-23T17:14:35;8.50;74.90
52963;DHT22;38827;53.024;6.596;2022-11-23T17:17:02;8.50;75.20
52963;DHT22;38827;53.024;6.596;2022-11-23T17:19:28;8.50;75.70
52963;DHT22;38827;53.024;6.596;2022-11-23T17:21:54;8.40;75.80
52963;DHT22;38827;53.024;6.596;2022-11-23T17:24:19;8.40;76.20
52963;DHT22;38827;53.024;6.596;2022-11-23T17:26:47;8.40;76.50
52963;DHT22;38827;53.024;6.596;2022-11-23T17:29:19;8.40;76.70
52963;DHT22;38827;53.024;6.596;2022-11-23T17:31:49;8.30;77.00
52963;DHT22;38827;53.024;6.596;2022-11-23T17:34:15;8.30;77.30
52963;DHT22;38827;53.024;6.596;2022-11-23T17:36:45;8.30;78.30
52963;DHT22;38827;53.024;6.596;2022-11-23T17:39:17;8.30;77.70
52963;DHT22;38827;53.024;6.596;2022-11-23T17:41:44;8.30;77.90
52963;DHT22;38827;53.024;6.596;2022-11-23T17:44:09;8.20;78.20
52963;DHT22;38827;53.024;6.596;2022-11-23T17:46:35;8.20;78.50
52963;DHT22;38827;53.024;6.596;2022-11-23T17:49:01;8.20;78.80
52963;DHT22;38827;53.024;6.596;2022-11-23T17:51:27;8.20;79.20
52963;DHT22;38827;53.024;6.596;2022-11-23T17:53:53;8.10;79.30
52963;DHT22;38827;53.024;6.596;2022-11-23T17:56:21;8.10;79.50
52963;DHT22;38827;53.024;6.596;2022-11-23T17:58:47;8.10;79.40
52963;DHT22;38827;53.024;6.596;2022-11-23T18:01:15;8.10;79.60
52963;DHT22;38827;53.024;6.596;2022-11-23T18:03:41;8.10;79.80
52963;DHT22;38827;53.024;6.596;2022-11-23T18:06:15;8.10;80.00
52963;DHT22;38827;53.024;6.596;2022-11-23T18:08:44;8.10;80.10
52963;DHT22;38827;53.024;6.596;2022-11-23T18:11:12;8.10;80.10
52963;DHT22;38827;53.024;6.596;2022-11-23T18:13:38;8.10;80.30
52963;DHT22;38827;53.024;6.596;2022-11-23T18:16:05;8.00;81.10
52963;DHT22;38827;53.024;6.596;2022-11-23T18:18:31;8.00;80.60
52963;DHT22;38827;53.024;6.596;2022-11-23T18:20:57;8.00;80.40
52963;DHT22;38827;53.024;6.596;2022-11-23T18:23:41;8.00;80.60
52963;DHT22;38827;53.024;6.596;2022-11-23T18:26:21;8.10;80.50
52963;DHT22;38827;53.024;6.596;2022-11-23T18:28:48;8.10;80.70
52963;DHT22;38827;53.024;6.596;2022-11-23T18:31:14;8.10;80.90
52963;DHT22;38827;53.024;6.596;2022-11-23T18:33:40;8.10;80.90
52963;DHT22;38827;53.024;6.596;2022-11-23T18:36:06;8.10;81.10
52963;DHT22;38827;53.024;6.596;2022-11-23T18:38:33;8.10;81.10
52963;DHT22;38827;53.024;6.596;2022-11-23T18:40:59;8.10;81.30
52963;DHT22;38827;53.024;6.596;2022-11-23T18:43:24;8.10;81.50
52963;DHT22;38827;53.024;6.596;2022-11-23T18:45:51;8.10;81.50
52963;DHT22;38827;53.024;6.596;2022-11-23T18:48:17;8.10;81.80
52963;DHT22;38827;53.024;6.596;2022-11-23T18:50:42;8.10;81.80
52963;DHT22;38827;53.024;6.596;2022-11-23T18:53:09;8.10;81.90
52963;DHT22;38827;53.024;6.596;2022-11-23T18:55:37;8.10;82.30
52963;DHT22;38827;53.024;6.596;2022-11-23T18:58:04;8.10;82.30
52963;DHT22;38827;53.024;6.596;2022-11-23T19:00:30;8.10;82.30
52963;DHT22;38827;53.024;6.596;2022-11-23T19:02:58;8.10;82.60
52963;DHT22;38827;53.024;6.596;2022-11-23T19:05:25;8.10;82.40
52963;DHT22;38827;53.024;6.596;2022-11-23T19:07:52;8.10;82.60
52963;DHT22;38827;53.024;6.596;2022-11-23T19:10:18;8.10;82.60
52963;DHT22;38827;53.024;6.596;2022-11-23T19:12:44;8.10;82.70